Alma, Colorado
Current Conditions -  °F | °C
As of 8:37 AM on Saturday 25 Oct 2014 (Local Time) from KCCU Reporting Station
Clear Clear  
Wind Chill: 44°   Ceiling: Unl
Heat Index: 46°   Visibility: 10mi
Dew Point: -4°   Wind: 6mph
Humidity: 12%   Direction: 170°S
Pressure: 30.64"   Gusts: NA
Location:  39.28°N, 106.06°W
Report Text: KCCU 251437Z AUTO 17005KT 10SM CLR 08/M20 A3064 RMK AO2
Loading
Personal Weather Stations






























Interactive Weather Map
Tropical Storm Tracking
New forecast layout! Learn more

10-Day Weather Forecast

Advertisements
Track Severe Weather on mobile